ADDS METAR Data INFO
IDs: Format: Raw Decoded Include TAF

Data at: 0716 UTC 24 Jun 2018

KGXY 240656Z AUTO 36008KT 10SM FEW100 16/11 A3000 RMK AO2 LTG DSNT E AND SE RAB24E40 SLP121 P0000 T01560106 403170106
KGXY 240556Z AUTO 35009G19KT 10SM BKN090 16/11 A3003 RMK AO2 LTG DSNT E AND SE TSE21RAB01E30 PRESRR SLP128 P0002 60002 T01610106 10289 20156 53045
KGXY 240527Z AUTO 03018KT 10SM -RA FEW029 SCT070 BKN085 16/11 A2993 RMK AO2 LTG DSNT SE-SW TSE21RAB01 P0002
KGXY 240456Z AUTO 02006KT 9SM TS BKN090 OVC110 18/09 A2996 RMK AO2 WSHFT 0429 TSB54 SLP104 T01780089
KGXY 240449Z AUTO 30009KT 10SM BKN100 17/09 A2998 RMK AO2 WSHFT 0429 PRESRR
KGXY 240356Z AUTO 02014G20KT 10SM FEW110 18/08 A2992 RMK AO2 PRESRR SLP094 T01830083
KGXY 240256Z AUTO 04017G21KT 10SM FEW095 SCT120 19/10 A2988 RMK AO2 PK WND 02026/0226 SLP080 T01940100 53025
KGXY 240156Z AUTO 02014KT 10SM CLR 24/07 A2982 RMK AO2 SLP060 T02440067
KGXY 240056Z AUTO 04005KT 10SM CLR 26/09 A2979 RMK AO2 SLP052 T02610094
KGXY 232356Z AUTO 03006KT 10SM CLR 29/04 A2979 RMK AO2 SLP050 T02890039 10317 20267 56015
KGXY 232256Z AUTO 07005KT 10SM CLR 30/04 A2980 RMK AO2 SLP053 T03000039
KGXY 232156Z AUTO 06005KT 10SM CLR 29/03 A2983 RMK AO2 SLP061 T02940033
KGXY 232056Z AUTO 08006KT 10SM CLR 29/03 A2984 RMK AO2 SLP066 T02890033 58027
KGXY 231956Z AUTO VRB05KT 10SM CLR 29/06 A2988 RMK AO2 SLP075 T02940056
KGXY 231856Z AUTO VRB05KT 10SM CLR 27/06 A2991 RMK AO2 SLP090 T02670061
KGXY 231756Z AUTO 00000KT 10SM CLR 27/06 A2993 RMK AO2 SLP098 T02670056 10272 20111 56013
KGXY 231656Z AUTO 18006KT 10SM CLR 27/12 A2995 RMK AO2 SLP099 T02670117
KGXY 231556Z AUTO VRB03KT 10SM CLR 23/12 A2996 RMK AO2 SLP109 T02280122
KGXY 231456Z AUTO 00000KT 10SM CLR 20/12 A2998 RMK AO2 SLP115 T02000117 51003
KGXY 231356Z AUTO 00000KT 10SM CLR 17/12 A2998 RMK AO2 SLP117 T01670117
KGXY 231256Z AUTO 00000KT 10SM CLR 13/11 A2997 RMK AO2 SLP119 T01280106
KGXY 231156Z AUTO 00000KT 10SM CLR 11/10 A2997 RMK AO2 SLP116 T01110100 10139 20106 56006
KGXY 231056Z AUTO 00000KT 9SM CLR 11/10 A2997 RMK AO2 SLP117 T01110100
KGXY 230956Z AUTO 26004KT 10SM CLR 12/11 A2998 RMK AO2 SLP116 T01170106
KGXY 230856Z AUTO 36005KT 10SM CLR 12/11 A2999 RMK AO2 SLP121 T01220106 58008
KGXY 230756Z AUTO 32006KT 10SM CLR 13/11 A3000 RMK AO2 SLP123 T01330111
KGXY 230656Z AUTO 30006KT 10SM CLR 13/11 A3001 RMK AO2 SLP129 T01330111 402780133
KGXY 230556Z AUTO 32005KT 10SM CLR 14/11 A3001 RMK AO2 SLP135 60000 T01390111 10256 20139 51022
KGXY 230456Z AUTO 06004KT 10SM CLR 16/11 A3001 RMK AO2 SLP131 T01610111
KGXY 230356Z AUTO 05009KT 10SM CLR 17/11 A2999 RMK AO2 PRESRR SLP126 T01720111
KGXY 230256Z AUTO 05014G21KT 10SM CLR 19/11 A2994 RMK AO2 SLP106 60000 T01940111 53024
KGXY 230156Z AUTO 06004KT 10SM CLR 22/12 A2990 RMK AO2 RAB43E55 SLP090 P0000 T02170122
KGXY 230056Z AUTO 09006KT 10SM CLR 23/12 A2987 RMK AO2 LTG DSNT N AND NW SLP078 T02330117
KGXY 222356Z AUTO 12011KT 10SM CLR 26/10 A2986 RMK AO2 SLP074 T02560100 10278 20217 56004
KGXY 222256Z AUTO 11011KT 10SM CLR 26/09 A2987 RMK AO2 SLP074 T02610094
KGXY 222156Z AUTO 09017G20KT 10SM CLR 28/10 A2986 RMK AO2 LTG DSNT S AND NW SLP070 T02780100
KGXY 222056Z AUTO 11007KT 10SM CLR 27/09 A2987 RMK AO2 LTG DSNT NW SLP074 T02670089 56014
KGXY 221956Z AUTO 06007KT 10SM CLR 27/10 A2989 RMK AO2 LTG DSNT N SLP078 T02720100